sensor_id;sensor_type;location;lat;lon;timestamp;P1;durP1;ratioP1;P2;durP2;ratioP2
49948;SDS011;35840;45.982;8.890;2023-05-10T00:01:31;1.83;;;1.48;;
49948;SDS011;35840;45.982;8.890;2023-05-10T00:03:58;3.05;;;1.55;;
49948;SDS011;35840;45.982;8.890;2023-05-10T00:06:24;1.90;;;1.73;;
49948;SDS011;35840;45.982;8.890;2023-05-10T00:08:51;1.60;;;1.50;;
49948;SDS011;35840;45.982;8.890;2023-05-10T00:11:18;3.60;;;1.80;;
49948;SDS011;35840;45.982;8.890;2023-05-10T00:13:48;1.98;;;1.55;;
49948;SDS011;35840;45.982;8.890;2023-05-10T00:16:14;1.65;;;1.50;;
49948;SDS011;35840;45.982;8.890;2023-05-10T00:18:41;2.28;;;1.40;;
49948;SDS011;35840;45.982;8.890;2023-05-10T00:21:08;3.47;;;1.30;;
49948;SDS011;35840;45.982;8.890;2023-05-10T00:23:35;1.60;;;1.17;;
49948;SDS011;35840;45.982;8.890;2023-05-10T00:26:01;3.47;;;1.30;;
49948;SDS011;35840;45.982;8.890;2023-05-10T00:28:28;1.70;;;1.05;;
49948;SDS011;35840;45.982;8.890;2023-05-10T00:30:55;1.15;;;1.05;;
49948;SDS011;35840;45.982;8.890;2023-05-10T00:33:22;4.93;;;1.38;;
49948;SDS011;35840;45.982;8.890;2023-05-10T00:35:49;4.93;;;1.45;;
49948;SDS011;35840;45.982;8.890;2023-05-10T00:38:16;3.92;;;1.20;;
49948;SDS011;35840;45.982;8.890;2023-05-10T00:40:43;1.60;;;1.42;;
49948;SDS011;35840;45.982;8.890;2023-05-10T00:43:17;2.42;;;1.13;;
49948;SDS011;35840;45.982;8.890;2023-05-10T00:45:46;1.70;;;1.25;;
49948;SDS011;35840;45.982;8.890;2023-05-10T00:48:13;2.97;;;1.20;;
49948;SDS011;35840;45.982;8.890;2023-05-10T00:50:40;3.35;;;1.60;;
49948;SDS011;35840;45.982;8.890;2023-05-10T00:53:07;2.00;;;1.80;;
49948;SDS011;35840;45.982;8.890;2023-05-10T00:55:35;3.15;;;2.00;;
49948;SDS011;35840;45.982;8.890;2023-05-10T00:58:02;2.22;;;2.03;;
49948;SDS011;35840;45.982;8.890;2023-05-10T01:00:28;10.60;;;2.42;;
49948;SDS011;35840;45.982;8.890;2023-05-10T01:02:56;6.93;;;2.67;;
49948;SDS011;35840;45.982;8.890;2023-05-10T01:05:23;2.95;;;2.60;;
49948;SDS011;35840;45.982;8.890;2023-05-10T01:07:49;2.20;;;1.98;;
49948;SDS011;35840;45.982;8.890;2023-05-10T01:10:17;2.85;;;2.58;;
49948;SDS011;35840;45.982;8.890;2023-05-10T01:12:45;2.75;;;2.55;;
49948;SDS011;35840;45.982;8.890;2023-05-10T01:15:14;3.20;;;2.58;;
49948;SDS011;35840;45.982;8.890;2023-05-10T01:17:44;2.70;;;2.15;;
49948;SDS011;35840;45.982;8.890;2023-05-10T01:20:12;2.85;;;2.00;;
49948;SDS011;35840;45.982;8.890;2023-05-10T01:22:46;1.88;;;1.77;;
49948;SDS011;35840;45.982;8.890;2023-05-10T01:25:35;5.10;;;2.03;;
49948;SDS011;35840;45.982;8.890;2023-05-10T01:33:59;3.00;;;1.75;;
49948;SDS011;35840;45.982;8.890;2023-05-10T01:36:30;2.63;;;2.00;;
49948;SDS011;35840;45.982;8.890;2023-05-10T01:39:16;2.70;;;1.98;;
49948;SDS011;35840;45.982;8.890;2023-05-10T01:42:00;2.05;;;1.70;;
49948;SDS011;35840;45.982;8.890;2023-05-10T01:44:35;1.98;;;1.52;;
49948;SDS011;35840;45.982;8.890;2023-05-10T01:47:17;1.90;;;1.60;;
49948;SDS011;35840;45.982;8.890;2023-05-10T01:49:51;2.75;;;1.60;;
49948;SDS011;35840;45.982;8.890;2023-05-10T01:52:30;2.40;;;1.88;;
49948;SDS011;35840;45.982;8.890;2023-05-10T01:55:00;2.83;;;1.92;;
49948;SDS011;35840;45.982;8.890;2023-05-10T01:57:34;3.65;;;2.10;;
49948;SDS011;35840;45.982;8.890;2023-05-10T02:00:03;3.65;;;1.80;;
49948;SDS011;35840;45.982;8.890;2023-05-10T02:02:40;3.75;;;1.95;;
49948;SDS011;35840;45.982;8.890;2023-05-10T02:05:12;1.80;;;1.70;;
49948;SDS011;35840;45.982;8.890;2023-05-10T02:07:40;2.55;;;1.73;;
49948;SDS011;35840;45.982;8.890;2023-05-10T02:10:10;2.03;;;1.52;;
49948;SDS011;35840;45.982;8.890;2023-05-10T02:12:43;1.55;;;1.45;;
49948;SDS011;35840;45.982;8.890;2023-05-10T02:15:15;1.70;;;1.60;;
49948;SDS011;35840;45.982;8.890;2023-05-10T02:17:47;1.58;;;1.42;;
49948;SDS011;35840;45.982;8.890;2023-05-10T02:20:14;1.73;;;1.60;;
49948;SDS011;35840;45.982;8.890;2023-05-10T02:22:43;1.75;;;1.42;;
49948;SDS011;35840;45.982;8.890;2023-05-10T02:25:13;2.15;;;1.70;;
49948;SDS011;35840;45.982;8.890;2023-05-10T02:27:41;2.53;;;1.65;;
49948;SDS011;35840;45.982;8.890;2023-05-10T02:30:10;2.03;;;1.63;;
49948;SDS011;35840;45.982;8.890;2023-05-10T02:32:37;3.30;;;1.50;;
49948;SDS011;35840;45.982;8.890;2023-05-10T02:35:05;1.38;;;1.27;;
49948;SDS011;35840;45.982;8.890;2023-05-10T02:37:34;2.95;;;1.15;;
49948;SDS011;35840;45.982;8.890;2023-05-10T02:40:03;1.42;;;1.27;;
49948;SDS011;35840;45.982;8.890;2023-05-10T02:42:32;2.17;;;1.50;;
49948;SDS011;35840;45.982;8.890;2023-05-10T02:45:05;1.90;;;1.75;;
49948;SDS011;35840;45.982;8.890;2023-05-10T02:47:37;1.50;;;1.40;;
49948;SDS011;35840;45.982;8.890;2023-05-10T02:50:04;1.23;;;1.13;;
49948;SDS011;35840;45.982;8.890;2023-05-10T02:52:50;1.45;;;1.10;;
49948;SDS011;35840;45.982;8.890;2023-05-10T02:55:26;1.75;;;1.40;;
49948;SDS011;35840;45.982;8.890;2023-05-10T02:57:59;1.50;;;1.20;;
49948;SDS011;35840;45.982;8.890;2023-05-10T03:00:27;2.33;;;1.42;;
49948;SDS011;35840;45.982;8.890;2023-05-10T03:02:54;0.90;;;0.80;;
49948;SDS011;35840;45.982;8.890;2023-05-10T03:05:21;1.67;;;1.58;;
49948;SDS011;35840;45.982;8.890;2023-05-10T03:07:48;1.60;;;1.50;;
49948;SDS011;35840;45.982;8.890;2023-05-10T03:10:17;1.90;;;1.52;;
49948;SDS011;35840;45.982;8.890;2023-05-10T03:12:51;2.65;;;1.55;;
49948;SDS011;35840;45.982;8.890;2023-05-10T03:17:56;3.53;;;1.40;;
49948;SDS011;35840;45.982;8.890;2023-05-10T03:20:35;2.78;;;1.42;;
49948;SDS011;35840;45.982;8.890;2023-05-10T03:23:07;1.70;;;1.60;;
49948;SDS011;35840;45.982;8.890;2023-05-10T03:25:40;3.60;;;1.45;;
49948;SDS011;35840;45.982;8.890;2023-05-10T03:28:10;2.63;;;1.27;;
49948;SDS011;35840;45.982;8.890;2023-05-10T03:30:38;1.75;;;1.58;;
49948;SDS011;35840;45.982;8.890;2023-05-10T03:33:09;2.97;;;1.55;;
49948;SDS011;35840;45.982;8.890;2023-05-10T03:35:40;1.60;;;1.50;;
49948;SDS011;35840;45.982;8.890;2023-05-10T03:38:07;1.42;;;1.33;;
49948;SDS011;35840;45.982;8.890;2023-05-10T03:40:33;1.73;;;1.27;;
49948;SDS011;35840;45.982;8.890;2023-05-10T03:43:00;3.42;;;1.48;;
49948;SDS011;35840;45.982;8.890;2023-05-10T03:45:27;1.48;;;1.30;;
49948;SDS011;35840;45.982;8.890;2023-05-10T03:47:54;2.35;;;1.58;;
49948;SDS011;35840;45.982;8.890;2023-05-10T03:50:21;2.00;;;1.48;;
49948;SDS011;35840;45.982;8.890;2023-05-10T03:52:48;2.22;;;1.67;;
49948;SDS011;35840;45.982;8.890;2023-05-10T03:55:16;2.50;;;1.60;;
49948;SDS011;35840;45.982;8.890;2023-05-10T03:57:43;2.75;;;1.70;;
49948;SDS011;35840;45.982;8.890;2023-05-10T04:00:10;4.53;;;1.77;;
49948;SDS011;35840;45.982;8.890;2023-05-10T04:02:40;2.08;;;1.30;;
49948;SDS011;35840;45.982;8.890;2023-05-10T04:05:11;2.35;;;1.63;;
49948;SDS011;35840;45.982;8.890;2023-05-10T04:07:38;3.88;;;1.60;;
49948;SDS011;35840;45.982;8.890;2023-05-10T04:10:06;2.70;;;1.50;;
49948;SDS011;35840;45.982;8.890;2023-05-10T04:12:33;1.98;;;1.60;;
49948;SDS011;35840;45.982;8.890;2023-05-10T04:14:59;1.83;;;1.70;;
49948;SDS011;35840;45.982;8.890;2023-05-10T04:17:26;1.83;;;1.40;;
49948;SDS011;35840;45.982;8.890;2023-05-10T04:19:53;1.92;;;1.55;;
49948;SDS011;35840;45.982;8.890;2023-05-10T04:22:21;2.10;;;1.25;;
49948;SDS011;35840;45.982;8.890;2023-05-10T04:24:47;2.58;;;1.50;;
49948;SDS011;35840;45.982;8.890;2023-05-10T04:27:14;1.83;;;1.63;;
49948;SDS011;35840;45.982;8.890;2023-05-10T04:29:41;1.30;;;1.20;;
49948;SDS011;35840;45.982;8.890;2023-05-10T04:32:08;1.27;;;1.17;;
49948;SDS011;35840;45.982;8.890;2023-05-10T04:34:36;2.30;;;1.38;;
49948;SDS011;35840;45.982;8.890;2023-05-10T04:37:03;1.73;;;1.45;;
49948;SDS011;35840;45.982;8.890;2023-05-10T04:39:30;2.72;;;1.70;;
49948;SDS011;35840;45.982;8.890;2023-05-10T04:41:57;1.40;;;1.30;;
49948;SDS011;35840;45.982;8.890;2023-05-10T04:44:24;3.38;;;1.50;;
49948;SDS011;35840;45.982;8.890;2023-05-10T04:46:50;1.50;;;1.40;;
49948;SDS011;35840;45.982;8.890;2023-05-10T04:49:17;2.67;;;1.30;;
49948;SDS011;35840;45.982;8.890;2023-05-10T04:51:44;2.38;;;1.30;;
49948;SDS011;35840;45.982;8.890;2023-05-10T04:54:10;1.42;;;1.33;;
49948;SDS011;35840;45.982;8.890;2023-05-10T04:56:37;1.52;;;1.42;;
49948;SDS011;35840;45.982;8.890;2023-05-10T04:59:04;3.00;;;1.50;;
49948;SDS011;35840;45.982;8.890;2023-05-10T05:01:31;1.20;;;1.10;;
49948;SDS011;35840;45.982;8.890;2023-05-10T05:03:57;3.13;;;1.65;;
49948;SDS011;35840;45.982;8.890;2023-05-10T05:06:25;2.05;;;1.70;;
49948;SDS011;35840;45.982;8.890;2023-05-10T05:08:53;1.75;;;1.50;;
49948;SDS011;35840;45.982;8.890;2023-05-10T05:11:20;2.88;;;1.90;;
49948;SDS011;35840;45.982;8.890;2023-05-10T05:13:47;6.00;;;1.90;;
49948;SDS011;35840;45.982;8.890;2023-05-10T05:16:14;2.70;;;1.40;;
49948;SDS011;35840;45.982;8.890;2023-05-10T05:18:40;1.40;;;1.30;;
49948;SDS011;35840;45.982;8.890;2023-05-10T05:21:14;2.38;;;1.48;;
49948;SDS011;35840;45.982;8.890;2023-05-10T05:23:44;1.58;;;1.10;;
49948;SDS011;35840;45.982;8.890;2023-05-10T05:26:11;1.20;;;1.10;;
49948;SDS011;35840;45.982;8.890;2023-05-10T05:28:38;2.35;;;1.23;;
49948;SDS011;35840;45.982;8.890;2023-05-10T05:31:05;1.90;;;1.17;;
49948;SDS011;35840;45.982;8.890;2023-05-10T05:33:32;1.80;;;1.60;;
49948;SDS011;35840;45.982;8.890;2023-05-10T05:36:02;1.20;;;1.10;;
49948;SDS011;35840;45.982;8.890;2023-05-10T05:38:31;2.30;;;1.40;;
49948;SDS011;35840;45.982;8.890;2023-05-10T05:40:58;1.30;;;1.20;;
49948;SDS011;35840;45.982;8.890;2023-05-10T05:43:24;1.48;;;1.20;;
49948;SDS011;35840;45.982;8.890;2023-05-10T05:45:54;1.60;;;1.50;;
49948;SDS011;35840;45.982;8.890;2023-05-10T05:48:22;1.80;;;1.20;;
49948;SDS011;35840;45.982;8.890;2023-05-10T05:50:49;0.88;;;0.82;;
49948;SDS011;35840;45.982;8.890;2023-05-10T05:53:15;2.20;;;1.52;;
49948;SDS011;35840;45.982;8.890;2023-05-10T05:55:55;1.63;;;1.13;;
49948;SDS011;35840;45.982;8.890;2023-05-10T05:58:22;2.88;;;1.67;;
49948;SDS011;35840;45.982;8.890;2023-05-10T06:00:49;3.30;;;1.23;;
49948;SDS011;35840;45.982;8.890;2023-05-10T06:03:18;1.30;;;1.20;;
49948;SDS011;35840;45.982;8.890;2023-05-10T06:05:46;0.98;;;0.98;;
49948;SDS011;35840;45.982;8.890;2023-05-10T06:08:13;1.23;;;1.10;;
49948;SDS011;35840;45.982;8.890;2023-05-10T06:10:39;1.92;;;1.02;;
49948;SDS011;35840;45.982;8.890;2023-05-10T06:13:06;1.25;;;1.15;;
49948;SDS011;35840;45.982;8.890;2023-05-10T06:15:33;1.42;;;1.33;;
49948;SDS011;35840;45.982;8.890;2023-05-10T06:18:00;4.45;;;1.15;;
49948;SDS011;35840;45.982;8.890;2023-05-10T06:20:27;2.58;;;1.30;;
49948;SDS011;35840;45.982;8.890;2023-05-10T06:22:54;2.08;;;1.88;;
49948;SDS011;35840;45.982;8.890;2023-05-10T06:25:21;1.48;;;1.15;;
49948;SDS011;35840;45.982;8.890;2023-05-10T06:27:47;1.48;;;1.23;;
49948;SDS011;35840;45.982;8.890;2023-05-10T06:30:19;1.90;;;1.50;;
49948;SDS011;35840;45.982;8.890;2023-05-10T06:32:46;2.63;;;1.60;;
49948;SDS011;35840;45.982;8.890;2023-05-10T06:35:13;1.73;;;1.42;;
49948;SDS011;35840;45.982;8.890;2023-05-10T06:37:40;2.72;;;1.30;;
49948;SDS011;35840;45.982;8.890;2023-05-10T06:40:07;2.78;;;1.60;;
49948;SDS011;35840;45.982;8.890;2023-05-10T06:42:34;1.50;;;1.40;;
49948;SDS011;35840;45.982;8.890;2023-05-10T06:45:01;2.60;;;1.33;;
49948;SDS011;35840;45.982;8.890;2023-05-10T06:47:28;1.77;;;1.35;;
49948;SDS011;35840;45.982;8.890;2023-05-10T06:49:55;1.50;;;1.40;;
49948;SDS011;35840;45.982;8.890;2023-05-10T06:52:22;1.42;;;1.33;;
49948;SDS011;35840;45.982;8.890;2023-05-10T06:54:49;1.60;;;1.50;;
49948;SDS011;35840;45.982;8.890;2023-05-10T06:57:16;1.60;;;1.50;;
49948;SDS011;35840;45.982;8.890;2023-05-10T06:59:57;2.20;;;1.98;;
49948;SDS011;35840;45.982;8.890;2023-05-10T07:02:27;1.88;;;1.77;;
49948;SDS011;35840;45.982;8.890;2023-05-10T07:04:54;1.73;;;1.63;;
49948;SDS011;35840;45.982;8.890;2023-05-10T07:07:21;2.40;;;1.75;;
49948;SDS011;35840;45.982;8.890;2023-05-10T07:09:48;1.67;;;1.58;;
49948;SDS011;35840;45.982;8.890;2023-05-10T07:12:16;2.67;;;1.67;;
49948;SDS011;35840;45.982;8.890;2023-05-10T07:14:43;3.53;;;2.22;;
49948;SDS011;35840;45.982;8.890;2023-05-10T07:17:10;2.90;;;2.53;;
49948;SDS011;35840;45.982;8.890;2023-05-10T07:19:37;1.65;;;1.42;;
49948;SDS011;35840;45.982;8.890;2023-05-10T07:22:04;2.67;;;1.70;;
49948;SDS011;35840;45.982;8.890;2023-05-10T07:24:31;1.73;;;1.60;;
49948;SDS011;35840;45.982;8.890;2023-05-10T07:26:59;1.85;;;1.65;;
49948;SDS011;35840;45.982;8.890;2023-05-10T07:29:26;2.08;;;1.88;;
49948;SDS011;35840;45.982;8.890;2023-05-10T07:31:52;5.63;;;1.80;;
49948;SDS011;35840;45.982;8.890;2023-05-10T07:34:22;2.80;;;1.85;;
49948;SDS011;35840;45.982;8.890;2023-05-10T07:36:49;3.58;;;2.20;;
49948;SDS011;35840;45.982;8.890;2023-05-10T07:39:15;3.75;;;1.83;;
49948;SDS011;35840;45.982;8.890;2023-05-10T07:41:53;2.60;;;2.28;;
49948;SDS011;35840;45.982;8.890;2023-05-10T07:44:21;5.88;;;2.35;;
49948;SDS011;35840;45.982;8.890;2023-05-10T07:46:48;3.45;;;2.28;;
49948;SDS011;35840;45.982;8.890;2023-05-10T07:49:14;3.70;;;2.22;;
49948;SDS011;35840;45.982;8.890;2023-05-10T07:51:41;2.92;;;2.20;;
49948;SDS011;35840;45.982;8.890;2023-05-10T07:54:09;8.70;;;2.90;;
49948;SDS011;35840;45.982;8.890;2023-05-10T07:56:35;2.55;;;2.13;;
49948;SDS011;35840;45.982;8.890;2023-05-10T07:59:03;4.90;;;2.65;;
49948;SDS011;35840;45.982;8.890;2023-05-10T08:01:31;3.03;;;2.25;;
49948;SDS011;35840;45.982;8.890;2023-05-10T08:03:59;5.20;;;2.85;;
49948;SDS011;35840;45.982;8.890;2023-05-10T08:06:28;4.00;;;2.47;;
49948;SDS011;35840;45.982;8.890;2023-05-10T08:08:56;2.97;;;2.70;;
49948;SDS011;35840;45.982;8.890;2023-05-10T08:11:23;2.45;;;2.22;;
49948;SDS011;35840;45.982;8.890;2023-05-10T08:13:50;2.60;;;2.40;;
49948;SDS011;35840;45.982;8.890;2023-05-10T08:16:17;3.38;;;2.28;;
49948;SDS011;35840;45.982;8.890;2023-05-10T08:18:44;2.28;;;2.08;;
49948;SDS011;35840;45.982;8.890;2023-05-10T08:21:13;4.97;;;2.42;;
49948;SDS011;35840;45.982;8.890;2023-05-10T08:23:40;3.95;;;2.63;;
49948;SDS011;35840;45.982;8.890;2023-05-10T08:26:10;3.92;;;2.40;;
49948;SDS011;35840;45.982;8.890;2023-05-10T08:28:37;5.10;;;3.17;;
49948;SDS011;35840;45.982;8.890;2023-05-10T08:31:04;2.90;;;2.53;;
49948;SDS011;35840;45.982;8.890;2023-05-10T08:33:31;3.15;;;2.40;;
49948;SDS011;35840;45.982;8.890;2023-05-10T08:35:58;3.28;;;2.75;;
49948;SDS011;35840;45.982;8.890;2023-05-10T08:38:25;3.03;;;2.72;;
49948;SDS011;35840;45.982;8.890;2023-05-10T08:40:52;5.65;;;2.58;;
49948;SDS011;35840;45.982;8.890;2023-05-10T08:43:22;2.95;;;2.72;;
49948;SDS011;35840;45.982;8.890;2023-05-10T08:45:54;2.95;;;2.72;;
49948;SDS011;35840;45.982;8.890;2023-05-10T08:48:23;2.75;;;2.45;;
49948;SDS011;35840;45.982;8.890;2023-05-10T08:50:52;4.00;;;2.70;;
49948;SDS011;35840;45.982;8.890;2023-05-10T08:53:24;3.72;;;2.70;;
49948;SDS011;35840;45.982;8.890;2023-05-10T08:55:53;4.47;;;2.72;;
49948;SDS011;35840;45.982;8.890;2023-05-10T08:58:20;2.97;;;2.70;;
49948;SDS011;35840;45.982;8.890;2023-05-10T09:00:48;2.90;;;2.63;;
49948;SDS011;35840;45.982;8.890;2023-05-10T09:03:17;2.08;;;1.98;;
49948;SDS011;35840;45.982;8.890;2023-05-10T09:05:44;2.60;;;2.40;;
49948;SDS011;35840;45.982;8.890;2023-05-10T09:08:11;2.47;;;2.22;;
49948;SDS011;35840;45.982;8.890;2023-05-10T09:10:39;6.15;;;2.05;;
49948;SDS011;35840;45.982;8.890;2023-05-10T09:13:06;2.72;;;2.40;;
49948;SDS011;35840;45.982;8.890;2023-05-10T09:15:35;2.67;;;2.22;;
49948;SDS011;35840;45.982;8.890;2023-05-10T09:18:02;4.15;;;2.58;;
49948;SDS011;35840;45.982;8.890;2023-05-10T09:20:29;5.03;;;2.28;;
49948;SDS011;35840;45.982;8.890;2023-05-10T09:22:55;3.97;;;3.08;;
49948;SDS011;35840;45.982;8.890;2023-05-10T09:25:22;3.15;;;2.88;;
49948;SDS011;35840;45.982;8.890;2023-05-10T09:27:49;2.92;;;2.65;;
49948;SDS011;35840;45.982;8.890;2023-05-10T09:30:17;2.80;;;2.60;;
49948;SDS011;35840;45.982;8.890;2023-05-10T09:32:51;2.70;;;2.50;;
49948;SDS011;35840;45.982;8.890;2023-05-10T09:35:19;3.58;;;2.80;;
49948;SDS011;35840;45.982;8.890;2023-05-10T09:37:48;3.53;;;2.83;;
49948;SDS011;35840;45.982;8.890;2023-05-10T09:40:17;3.00;;;2.70;;
49948;SDS011;35840;45.982;8.890;2023-05-10T09:42:52;3.35;;;3.05;;
49948;SDS011;35840;45.982;8.890;2023-05-10T09:45:22;3.97;;;2.95;;
49948;SDS011;35840;45.982;8.890;2023-05-10T09:47:50;3.42;;;2.95;;
49948;SDS011;35840;45.982;8.890;2023-05-10T09:50:17;4.57;;;3.47;;
49948;SDS011;35840;45.982;8.890;2023-05-10T09:55:46;4.03;;;3.40;;
49948;SDS011;35840;45.982;8.890;2023-05-10T09:58:13;3.45;;;3.15;;
49948;SDS011;35840;45.982;8.890;2023-05-10T10:00:41;4.78;;;3.28;;
49948;SDS011;35840;45.982;8.890;2023-05-10T10:03:16;5.45;;;3.28;;
49948;SDS011;35840;45.982;8.890;2023-05-10T10:05:46;3.80;;;2.85;;
49948;SDS011;35840;45.982;8.890;2023-05-10T10:08:14;3.42;;;3.13;;
49948;SDS011;35840;45.982;8.890;2023-05-10T10:10:41;5.95;;;3.20;;
49948;SDS011;35840;45.982;8.890;2023-05-10T10:13:11;4.85;;;3.00;;
49948;SDS011;35840;45.982;8.890;2023-05-10T10:15:39;3.10;;;2.80;;
49948;SDS011;35840;45.982;8.890;2023-05-10T10:18:06;4.47;;;3.15;;
49948;SDS011;35840;45.982;8.890;2023-05-10T10:20:37;3.95;;;3.20;;
49948;SDS011;35840;45.982;8.890;2023-05-10T10:23:04;4.50;;;2.97;;
49948;SDS011;35840;45.982;8.890;2023-05-10T10:25:31;4.30;;;3.17;;
49948;SDS011;35840;45.982;8.890;2023-05-10T10:28:05;10.23;;;3.15;;
49948;SDS011;35840;45.982;8.890;2023-05-10T10:30:42;3.88;;;3.47;;
49948;SDS011;35840;45.982;8.890;2023-05-10T10:33:28;4.50;;;3.58;;
49948;SDS011;35840;45.982;8.890;2023-05-10T10:36:02;3.22;;;2.92;;
49948;SDS011;35840;45.982;8.890;2023-05-10T10:39:05;3.33;;;3.03;;
49948;SDS011;35840;45.982;8.890;2023-05-10T10:41:31;3.60;;;3.30;;
49948;SDS011;35840;45.982;8.890;2023-05-10T10:57:35;3.67;;;3.38;;
49948;SDS011;35840;45.982;8.890;2023-05-10T11:02:50;4.00;;;3.60;;
49948;SDS011;35840;45.982;8.890;2023-05-10T11:05:41;84.63;;;7.03;;
49948;SDS011;35840;45.982;8.890;2023-05-10T11:08:12;7.97;;;3.40;;
49948;SDS011;35840;45.982;8.890;2023-05-10T11:10:53;2.80;;;2.60;;
49948;SDS011;35840;45.982;8.890;2023-05-10T11:13:39;5.28;;;3.42;;
49948;SDS011;35840;45.982;8.890;2023-05-10T11:19:05;3.80;;;2.90;;
49948;SDS011;35840;45.982;8.890;2023-05-10T11:21:44;3.03;;;2.72;;
49948;SDS011;35840;45.982;8.890;2023-05-10T11:24:16;2.92;;;2.08;;
49948;SDS011;35840;45.982;8.890;2023-05-10T11:26:45;3.13;;;2.55;;
49948;SDS011;35840;45.982;8.890;2023-05-10T11:29:12;2.75;;;2.55;;
49948;SDS011;35840;45.982;8.890;2023-05-10T11:31:46;2.40;;;2.20;;
49948;SDS011;35840;45.982;8.890;2023-05-10T11:36:56;2.75;;;2.30;;
49948;SDS011;35840;45.982;8.890;2023-05-10T11:39:28;2.75;;;2.30;;
49948;SDS011;35840;45.982;8.890;2023-05-10T11:41:56;4.85;;;2.55;;
49948;SDS011;35840;45.982;8.890;2023-05-10T11:44:30;3.35;;;3.05;;
49948;SDS011;35840;45.982;8.890;2023-05-10T11:47:01;2.90;;;2.60;;
49948;SDS011;35840;45.982;8.890;2023-05-10T11:49:28;3.70;;;2.50;;
49948;SDS011;35840;45.982;8.890;2023-05-10T11:52:04;3.47;;;2.40;;
49948;SDS011;35840;45.982;8.890;2023-05-10T11:54:32;2.97;;;2.70;;
49948;SDS011;35840;45.982;8.890;2023-05-10T11:57:01;2.17;;;1.92;;
49948;SDS011;35840;45.982;8.890;2023-05-10T11:59:27;2.33;;;2.13;;
49948;SDS011;35840;45.982;8.890;2023-05-10T12:01:54;2.65;;;1.77;;
49948;SDS011;35840;45.982;8.890;2023-05-10T12:04:21;2.50;;;2.10;;
49948;SDS011;35840;45.982;8.890;2023-05-10T12:06:48;3.15;;;2.03;;
49948;SDS011;35840;45.982;8.890;2023-05-10T12:09:15;3.38;;;2.50;;
49948;SDS011;35840;45.982;8.890;2023-05-10T12:11:48;2.35;;;1.90;;
49948;SDS011;35840;45.982;8.890;2023-05-10T12:14:15;3.03;;;2.47;;
49948;SDS011;35840;45.982;8.890;2023-05-10T12:16:42;1.80;;;1.65;;
49948;SDS011;35840;45.982;8.890;2023-05-10T12:19:10;2.85;;;2.13;;
49948;SDS011;35840;45.982;8.890;2023-05-10T12:21:37;3.30;;;1.88;;
49948;SDS011;35840;45.982;8.890;2023-05-10T12:24:05;2.35;;;2.05;;
49948;SDS011;35840;45.982;8.890;2023-05-10T12:26:32;2.05;;;1.85;;
49948;SDS011;35840;45.982;8.890;2023-05-10T12:29:12;1.63;;;1.50;;
49948;SDS011;35840;45.982;8.890;2023-05-10T12:31:50;2.65;;;1.70;;
49948;SDS011;35840;45.982;8.890;2023-05-10T12:36:52;2.00;;;1.90;;
49948;SDS011;35840;45.982;8.890;2023-05-10T12:39:20;2.55;;;1.88;;
49948;SDS011;35840;45.982;8.890;2023-05-10T12:41:47;2.58;;;1.80;;
49948;SDS011;35840;45.982;8.890;2023-05-10T12:44:14;2.53;;;2.13;;
49948;SDS011;35840;45.982;8.890;2023-05-10T12:46:41;1.77;;;1.50;;
49948;SDS011;35840;45.982;8.890;2023-05-10T12:49:07;2.50;;;2.25;;
49948;SDS011;35840;45.982;8.890;2023-05-10T12:51:35;2.33;;;2.13;;
49948;SDS011;35840;45.982;8.890;2023-05-10T12:54:02;3.55;;;2.33;;
49948;SDS011;35840;45.982;8.890;2023-05-10T12:56:29;2.90;;;2.08;;
49948;SDS011;35840;45.982;8.890;2023-05-10T12:58:56;3.35;;;2.95;;
49948;SDS011;35840;45.982;8.890;2023-05-10T13:01:23;4.55;;;3.25;;
49948;SDS011;35840;45.982;8.890;2023-05-10T13:03:49;10.88;;;3.53;;
49948;SDS011;35840;45.982;8.890;2023-05-10T13:06:16;3.67;;;3.10;;
49948;SDS011;35840;45.982;8.890;2023-05-10T13:08:43;3.83;;;2.67;;
49948;SDS011;35840;45.982;8.890;2023-05-10T13:11:10;3.28;;;2.92;;
49948;SDS011;35840;45.982;8.890;2023-05-10T13:13:36;5.90;;;2.53;;
49948;SDS011;35840;45.982;8.890;2023-05-10T13:16:03;4.38;;;2.35;;
49948;SDS011;35840;45.982;8.890;2023-05-10T13:18:30;3.15;;;2.15;;
49948;SDS011;35840;45.982;8.890;2023-05-10T13:20:57;5.25;;;1.95;;
49948;SDS011;35840;45.982;8.890;2023-05-10T13:23:24;2.70;;;2.50;;
49948;SDS011;35840;45.982;8.890;2023-05-10T13:25:51;2.90;;;1.90;;
49948;SDS011;35840;45.982;8.890;2023-05-10T13:28:17;2.05;;;1.85;;
49948;SDS011;35840;45.982;8.890;2023-05-10T13:30:44;2.10;;;1.90;;
49948;SDS011;35840;45.982;8.890;2023-05-10T13:33:11;3.28;;;1.70;;
49948;SDS011;35840;45.982;8.890;2023-05-10T13:35:37;1.50;;;1.40;;
49948;SDS011;35840;45.982;8.890;2023-05-10T13:38:04;1.40;;;1.30;;
49948;SDS011;35840;45.982;8.890;2023-05-10T13:40:34;2.75;;;1.70;;
49948;SDS011;35840;45.982;8.890;2023-05-10T13:43:02;1.73;;;1.60;;
49948;SDS011;35840;45.982;8.890;2023-05-10T13:45:28;1.55;;;1.45;;
49948;SDS011;35840;45.982;8.890;2023-05-10T13:47:55;1.70;;;1.60;;
49948;SDS011;35840;45.982;8.890;2023-05-10T13:50:22;3.50;;;2.00;;
49948;SDS011;35840;45.982;8.890;2023-05-10T13:52:49;2.38;;;2.17;;
49948;SDS011;35840;45.982;8.890;2023-05-10T13:55:16;1.88;;;1.77;;
49948;SDS011;35840;45.982;8.890;2023-05-10T13:57:43;2.33;;;2.20;;
49948;SDS011;35840;45.982;8.890;2023-05-10T14:00:09;2.00;;;1.90;;
49948;SDS011;35840;45.982;8.890;2023-05-10T14:02:36;2.15;;;1.90;;
49948;SDS011;35840;45.982;8.890;2023-05-10T14:05:03;2.30;;;2.10;;
49948;SDS011;35840;45.982;8.890;2023-05-10T14:07:30;2.47;;;2.25;;
49948;SDS011;35840;45.982;8.890;2023-05-10T14:09:57;2.33;;;2.10;;
49948;SDS011;35840;45.982;8.890;2023-05-10T14:12:24;2.30;;;2.10;;
49948;SDS011;35840;45.982;8.890;2023-05-10T14:14:50;6.97;;;3.38;;
49948;SDS011;35840;45.982;8.890;2023-05-10T14:17:17;2.63;;;2.35;;
49948;SDS011;35840;45.982;8.890;2023-05-10T14:19:44;3.22;;;2.40;;
49948;SDS011;35840;45.982;8.890;2023-05-10T14:22:11;2.17;;;1.98;;
49948;SDS011;35840;45.982;8.890;2023-05-10T14:24:37;3.05;;;2.75;;
49948;SDS011;35840;45.982;8.890;2023-05-10T14:27:04;2.25;;;2.08;;
49948;SDS011;35840;45.982;8.890;2023-05-10T14:29:32;2.42;;;2.22;;
49948;SDS011;35840;45.982;8.890;2023-05-10T14:31:59;3.00;;;2.70;;
49948;SDS011;35840;45.982;8.890;2023-05-10T14:34:26;3.30;;;3.00;;
49948;SDS011;35840;45.982;8.890;2023-05-10T14:36:52;4.05;;;2.63;;
49948;SDS011;35840;45.982;8.890;2023-05-10T14:39:19;4.40;;;2.97;;
49948;SDS011;35840;45.982;8.890;2023-05-10T14:41:46;3.30;;;2.85;;
49948;SDS011;35840;45.982;8.890;2023-05-10T14:44:13;3.75;;;2.80;;
49948;SDS011;35840;45.982;8.890;2023-05-10T14:46:41;3.38;;;3.08;;
49948;SDS011;35840;45.982;8.890;2023-05-10T14:49:08;3.10;;;2.80;;
49948;SDS011;35840;45.982;8.890;2023-05-10T14:51:34;3.13;;;2.83;;
49948;SDS011;35840;45.982;8.890;2023-05-10T14:54:03;2.67;;;2.47;;
49948;SDS011;35840;45.982;8.890;2023-05-10T14:56:29;6.00;;;2.78;;
49948;SDS011;35840;45.982;8.890;2023-05-10T14:58:56;4.95;;;2.85;;
49948;SDS011;35840;45.982;8.890;2023-05-10T15:01:23;3.63;;;2.55;;
49948;SDS011;35840;45.982;8.890;2023-05-10T15:03:51;3.50;;;2.58;;
49948;SDS011;35840;45.982;8.890;2023-05-10T15:06:22;3.00;;;2.55;;
49948;SDS011;35840;45.982;8.890;2023-05-10T15:08:51;2.97;;;2.33;;
49948;SDS011;35840;45.982;8.890;2023-05-10T15:11:18;2.60;;;2.40;;
49948;SDS011;35840;45.982;8.890;2023-05-10T15:13:44;3.35;;;2.70;;
49948;SDS011;35840;45.982;8.890;2023-05-10T15:16:11;4.68;;;3.10;;
49948;SDS011;35840;45.982;8.890;2023-05-10T15:18:38;3.13;;;2.70;;
49948;SDS011;35840;45.982;8.890;2023-05-10T15:21:05;2.75;;;2.45;;
49948;SDS011;35840;45.982;8.890;2023-05-10T15:23:32;4.93;;;3.28;;
49948;SDS011;35840;45.982;8.890;2023-05-10T15:25:59;2.60;;;2.40;;
49948;SDS011;35840;45.982;8.890;2023-05-10T15:28:26;4.85;;;2.53;;
49948;SDS011;35840;45.982;8.890;2023-05-10T15:30:53;7.68;;;2.65;;
49948;SDS011;35840;45.982;8.890;2023-05-10T15:33:20;3.83;;;3.17;;